createdAt,value
2019-03-06T00:01:11.947Z,4.80
2019-03-06T00:03:41.319Z,4.80
2019-03-06T00:06:16.716Z,4.80
2019-03-06T00:08:41.527Z,5.00
2019-03-06T00:11:10.813Z,4.90
2019-03-06T00:13:40.144Z,5.00
2019-03-06T00:16:09.494Z,4.90
2019-03-06T00:18:38.827Z,4.90
2019-03-06T00:21:08.187Z,4.80
2019-03-06T00:23:37.505Z,4.80
2019-03-06T00:26:06.874Z,4.80
2019-03-06T00:28:36.196Z,4.80
2019-03-06T00:31:05.539Z,4.80
2019-03-06T00:33:34.778Z,4.80
2019-03-06T00:36:05.315Z,4.90
2019-03-06T00:38:34.675Z,4.90
2019-03-06T00:41:29.164Z,4.80
2019-03-06T00:43:58.932Z,4.90
2019-03-06T00:46:28.312Z,4.90
2019-03-06T00:48:57.679Z,4.90
2019-03-06T00:51:26.997Z,4.90
2019-03-06T00:53:56.318Z,4.80
2019-03-06T00:56:25.964Z,4.90
2019-03-06T00:58:55.503Z,4.90
2019-03-06T01:01:24.827Z,4.90
2019-03-06T01:03:54.309Z,4.90
2019-03-06T01:06:23.764Z,5.00
2019-03-06T01:08:53.412Z,5.00
2019-03-06T01:11:23.238Z,4.90
2019-03-06T01:13:52.547Z,4.90
2019-03-06T01:16:22.079Z,4.90
2019-03-06T01:18:51.340Z,5.00
2019-03-06T01:21:21.006Z,5.00
2019-03-06T01:23:50.602Z,5.10
2019-03-06T01:26:20.046Z,5.10
2019-03-06T01:28:49.468Z,5.10
2019-03-06T01:31:18.950Z,5.20
2019-03-06T01:33:53.468Z,5.10
2019-03-06T01:36:38.863Z,5.10
2019-03-06T01:39:21.712Z,5.10
2019-03-06T01:41:58.871Z,5.10
2019-03-06T01:44:39.299Z,5.10
2019-03-06T01:47:08.866Z,5.20
2019-03-06T01:49:38.726Z,5.20
2019-03-06T01:52:08.109Z,5.20
2019-03-06T01:54:37.576Z,5.20
2019-03-06T01:57:07.084Z,5.20
2019-03-06T01:59:36.618Z,5.20
2019-03-06T02:02:06.025Z,5.30
2019-03-06T02:04:35.489Z,5.30
2019-03-06T02:07:04.941Z,5.30
2019-03-06T02:09:35.822Z,5.40
2019-03-06T02:12:06.772Z,5.40
2019-03-06T02:14:36.250Z,5.30
2019-03-06T02:17:06.000Z,5.40
2019-03-06T02:19:35.732Z,5.50
2019-03-06T02:22:05.363Z,5.40
2019-03-06T02:24:34.708Z,5.40
2019-03-06T02:27:04.100Z,5.30
2019-03-06T02:29:33.439Z,5.30
2019-03-06T02:32:02.679Z,5.30
2019-03-06T02:34:32.252Z,5.30
2019-03-06T02:37:01.596Z,5.30
2019-03-06T02:39:30.979Z,5.30
2019-03-06T02:42:00.316Z,5.30
2019-03-06T02:44:29.700Z,5.30
2019-03-06T02:46:59.329Z,5.30
2019-03-06T02:49:28.676Z,5.30
2019-03-06T02:51:58.010Z,5.30
2019-03-06T02:54:27.353Z,5.20
2019-03-06T02:56:56.693Z,5.10
2019-03-06T02:59:42.016Z,5.20
2019-03-06T03:02:24.002Z,5.10
2019-03-06T03:05:12.323Z,5.10
2019-03-06T03:07:41.658Z,5.10
2019-03-06T03:10:11.036Z,5.10
2019-03-06T03:12:40.379Z,5.10
2019-03-06T03:15:09.851Z,5.10
2019-03-06T03:17:39.198Z,5.10
2019-03-06T03:20:08.760Z,5.00
2019-03-06T03:22:37.964Z,5.00
2019-03-06T03:25:07.332Z,5.10
2019-03-06T03:27:36.734Z,5.10
2019-03-06T03:30:08.250Z,5.10
2019-03-06T03:32:37.633Z,5.10
2019-03-06T03:35:07.104Z,5.10
2019-03-06T03:37:36.446Z,5.10
2019-03-06T03:40:06.761Z,5.10
2019-03-06T03:42:36.158Z,5.10
2019-03-06T03:45:05.905Z,5.20
2019-03-06T03:47:35.360Z,5.10
2019-03-06T03:50:04.750Z,5.20
2019-03-06T03:52:34.087Z,5.20
2019-03-06T03:55:03.422Z,5.20
2019-03-06T03:57:32.914Z,5.20
2019-03-06T04:00:02.443Z,5.30
2019-03-06T04:02:31.815Z,5.30
2019-03-06T04:05:01.161Z,5.30
2019-03-06T04:07:30.568Z,5.30
2019-03-06T04:09:59.899Z,5.30
2019-03-06T04:12:29.184Z,5.20
2019-03-06T04:14:58.508Z,5.20
2019-03-06T04:17:27.819Z,5.20
2019-03-06T04:19:57.235Z,5.30
2019-03-06T04:22:26.515Z,5.30
2019-03-06T04:24:55.849Z,5.30
2019-03-06T04:27:25.258Z,5.30
2019-03-06T04:29:57.282Z,5.30
2019-03-06T04:32:26.638Z,5.30
2019-03-06T04:34:55.963Z,5.30
2019-03-06T04:37:25.324Z,5.30
2019-03-06T04:39:54.635Z,5.30
2019-03-06T04:42:23.924Z,5.30
2019-03-06T04:44:55.362Z,5.30
2019-03-06T04:47:24.563Z,5.30
2019-03-06T04:49:53.905Z,5.30
2019-03-06T04:52:23.191Z,5.20
2019-03-06T04:54:52.556Z,5.30
2019-03-06T04:57:21.828Z,5.30
2019-03-06T04:59:51.106Z,5.20
2019-03-06T05:02:20.405Z,5.20
2019-03-06T05:04:49.746Z,5.20
2019-03-06T05:07:19.024Z,5.20
2019-03-06T05:09:48.359Z,5.20
2019-03-06T05:12:17.700Z,5.20
2019-03-06T05:14:47.148Z,5.10
2019-03-06T05:17:35.808Z,5.10
2019-03-06T05:20:05.177Z,5.10
2019-03-06T05:22:34.594Z,5.10
2019-03-06T05:25:04.091Z,5.10
2019-03-06T05:27:33.455Z,5.00
2019-03-06T05:30:03.138Z,5.00
2019-03-06T05:32:34.270Z,5.00
2019-03-06T05:35:27.209Z,5.10
2019-03-06T05:38:03.128Z,5.10
2019-03-06T05:40:32.405Z,5.10
2019-03-06T05:43:01.707Z,5.10
2019-03-06T05:45:31.043Z,5.10
2019-03-06T05:48:02.016Z,5.10
2019-03-06T05:50:31.402Z,5.20
2019-03-06T05:53:00.735Z,5.10
2019-03-06T05:55:30.137Z,5.10
2019-03-06T05:57:59.522Z,5.20
2019-03-06T06:00:29.393Z,5.20
2019-03-06T06:02:58.832Z,5.20
2019-03-06T06:05:28.164Z,5.20
2019-03-06T06:07:57.454Z,5.20
2019-03-06T06:10:26.167Z,5.30
2019-03-06T06:12:55.468Z,5.30
2019-03-06T06:15:24.820Z,5.40
2019-03-06T06:17:54.097Z,5.40
2019-03-06T06:20:23.472Z,5.30
2019-03-06T06:23:10.599Z,5.30
2019-03-06T06:25:39.946Z,5.30
2019-03-06T06:28:09.300Z,5.40
2019-03-06T06:30:38.644Z,5.30
2019-03-06T06:33:08.383Z,5.30
2019-03-06T06:35:38.715Z,5.40
2019-03-06T06:38:08.042Z,5.30
2019-03-06T06:40:37.385Z,5.30
2019-03-06T06:43:06.716Z,5.30
2019-03-06T06:45:36.294Z,5.30
2019-03-06T06:48:10.117Z,5.40
2019-03-06T06:50:41.708Z,5.40
2019-03-06T06:53:35.562Z,5.40
2019-03-06T06:56:43.758Z,5.40
2019-03-06T06:59:36.710Z,5.40
2019-03-06T07:02:42.138Z,5.50
2019-03-06T07:05:26.821Z,5.50
2019-03-06T07:08:08.099Z,5.60
2019-03-06T07:11:02.547Z,5.50
2019-03-06T07:13:49.449Z,5.50
2019-03-06T07:16:44.052Z,5.50
2019-03-06T07:19:35.429Z,5.50
2019-03-06T07:22:19.145Z,5.50
2019-03-06T07:25:16.580Z,5.60
2019-03-06T07:28:09.779Z,5.60
2019-03-06T07:30:57.063Z,5.60
2019-03-06T07:33:39.898Z,5.70
2019-03-06T07:36:27.252Z,5.80
2019-03-06T07:39:16.448Z,5.90
2019-03-06T07:42:14.066Z,5.90
2019-03-06T07:45:22.183Z,6.00
2019-03-06T07:48:00.672Z,6.00
2019-03-06T07:50:44.939Z,6.00
2019-03-06T07:53:59.199Z,6.00
2019-03-06T07:56:32.156Z,6.10
2019-03-06T07:59:01.512Z,6.10
2019-03-06T08:01:33.343Z,6.10
2019-03-06T08:04:06.030Z,6.10
2019-03-06T08:06:35.572Z,6.20
2019-03-06T08:09:07.279Z,6.30
2019-03-06T08:11:53.450Z,6.50
2019-03-06T08:14:57.376Z,6.50
2019-03-06T08:17:53.936Z,6.50
2019-03-06T08:20:40.953Z,6.50
2019-03-06T08:23:28.084Z,6.50
2019-03-06T08:25:57.427Z,6.60
2019-03-06T08:28:26.675Z,6.60
2019-03-06T08:31:02.527Z,6.60
2019-03-06T08:33:31.845Z,6.60
2019-03-06T08:36:01.089Z,6.70
2019-03-06T08:38:30.413Z,6.80
2019-03-06T08:41:04.262Z,7.00
2019-03-06T08:43:30.643Z,7.00
2019-03-06T08:46:18.929Z,7.10
2019-03-06T08:49:07.187Z,7.20
2019-03-06T08:51:55.384Z,7.40
2019-03-06T08:54:40.472Z,7.70
2019-03-06T08:57:17.931Z,7.80
2019-03-06T09:00:12.040Z,8.00
2019-03-06T09:02:55.852Z,8.00
2019-03-06T09:05:56.334Z,8.20
2019-03-06T09:08:47.377Z,8.40
2019-03-06T09:11:29.947Z,8.60
2019-03-06T09:14:14.563Z,8.60
2019-03-06T09:16:59.787Z,8.60
2019-03-06T09:19:50.245Z,8.70
2019-03-06T09:22:31.131Z,8.80
2019-03-06T09:25:18.329Z,8.90
2019-03-06T09:28:03.091Z,9.10
2019-03-06T09:30:51.388Z,9.00
2019-03-06T09:33:28.687Z,9.30
2019-03-06T09:36:11.784Z,9.50
2019-03-06T09:39:00.054Z,9.50
2019-03-06T09:41:54.427Z,9.50
2019-03-06T09:44:28.779Z,9.40
2019-03-06T09:47:17.063Z,9.40
2019-03-06T09:50:02.508Z,9.30
2019-03-06T09:52:49.327Z,9.20
2019-03-06T09:55:43.783Z,9.20
2019-03-06T09:58:32.069Z,9.20
2019-03-06T10:01:38.521Z,9.40
2019-03-06T10:04:39.090Z,9.40
2019-03-06T10:07:36.416Z,9.30
2019-03-06T10:10:22.398Z,9.40
2019-03-06T10:13:10.653Z,9.50
2019-03-06T10:15:51.522Z,9.50
2019-03-06T10:18:38.831Z,9.50
2019-03-06T10:21:08.055Z,9.60
2019-03-06T10:23:37.387Z,9.80
2019-03-06T10:26:06.706Z,9.90
2019-03-06T10:28:36.715Z,10.20
2019-03-06T10:31:06.247Z,10.30
2019-03-06T10:33:35.699Z,10.30
2019-03-06T10:36:05.471Z,10.40
2019-03-06T10:38:34.800Z,10.40
2019-03-06T10:41:04.207Z,10.50
2019-03-06T10:43:33.568Z,10.70
2019-03-06T10:46:02.867Z,10.80
2019-03-06T10:48:32.139Z,10.90
2019-03-06T10:51:01.473Z,11.10
2019-03-06T10:53:30.707Z,11.20
2019-03-06T10:56:00.012Z,11.30
2019-03-06T10:58:29.339Z,11.30
2019-03-06T11:00:58.659Z,11.20
2019-03-06T11:03:37.507Z,11.10
2019-03-06T11:06:07.043Z,11.20
2019-03-06T11:08:36.351Z,11.30
2019-03-06T11:11:06.408Z,11.30
2019-03-06T11:13:35.943Z,11.20
2019-03-06T11:16:08.362Z,11.10
2019-03-06T11:18:37.690Z,11.10
2019-03-06T11:21:07.029Z,11.10
2019-03-06T11:23:36.431Z,11.20
2019-03-06T11:26:07.867Z,11.20
2019-03-06T11:28:38.599Z,11.10
2019-03-06T11:31:08.440Z,11.00
2019-03-06T11:33:37.979Z,11.00
2019-03-06T11:36:07.998Z,10.90
2019-03-06T11:38:37.351Z,10.80
2019-03-06T11:41:07.135Z,10.80
2019-03-06T11:43:36.479Z,10.80
2019-03-06T11:46:06.970Z,10.80
2019-03-06T11:48:36.307Z,10.80
2019-03-06T11:51:05.943Z,10.80
2019-03-06T11:53:35.284Z,10.80
2019-03-06T11:56:05.504Z,10.80
2019-03-06T11:58:34.820Z,10.80
2019-03-06T12:01:05.823Z,10.80
2019-03-06T12:03:35.142Z,10.90
2019-03-06T12:06:05.284Z,10.90
2019-03-06T12:08:34.790Z,10.90
2019-03-06T12:11:04.125Z,10.90
2019-03-06T12:13:33.832Z,10.90
2019-03-06T12:16:03.269Z,10.90
2019-03-06T12:18:34.113Z,10.90
2019-03-06T12:21:03.652Z,10.90
2019-03-06T12:23:32.955Z,10.90
2019-03-06T12:26:02.299Z,10.90
2019-03-06T12:28:31.623Z,11.00
2019-03-06T12:31:02.280Z,10.90
2019-03-06T12:33:31.641Z,11.00
2019-03-06T12:36:01.164Z,11.00
2019-03-06T12:38:30.498Z,11.00
2019-03-06T12:40:59.838Z,11.10
2019-03-06T12:43:29.147Z,11.20
2019-03-06T12:46:22.748Z,11.30
2019-03-06T12:48:58.883Z,11.30
2019-03-06T12:51:28.643Z,11.40
2019-03-06T12:53:57.883Z,11.40
2019-03-06T12:56:27.154Z,11.50
2019-03-06T12:58:56.466Z,11.50
2019-03-06T13:01:25.999Z,11.50
2019-03-06T13:03:55.231Z,11.60
2019-03-06T13:06:25.221Z,11.70
2019-03-06T13:08:56.419Z,11.70
2019-03-06T13:11:25.662Z,11.70
2019-03-06T13:13:55.208Z,11.80
2019-03-06T13:16:25.035Z,11.70
2019-03-06T13:18:54.365Z,11.70
2019-03-06T13:21:23.795Z,11.70
2019-03-06T13:23:53.122Z,11.70
2019-03-06T13:26:22.487Z,11.80
2019-03-06T13:28:57.324Z,11.90
2019-03-06T13:31:22.840Z,12.10
2019-03-06T13:34:10.155Z,12.30
2019-03-06T13:36:39.541Z,12.40
2019-03-06T13:39:09.435Z,12.50
2019-03-06T13:41:39.240Z,12.60
2019-03-06T13:44:08.722Z,12.70
2019-03-06T13:46:38.075Z,12.70
2019-03-06T13:49:07.386Z,12.80
2019-03-06T13:51:36.789Z,12.80
2019-03-06T13:54:06.127Z,12.80
2019-03-06T13:56:35.617Z,12.70
2019-03-06T13:59:05.426Z,12.80
2019-03-06T14:01:34.832Z,12.80
2019-03-06T14:04:04.200Z,13.00
2019-03-06T14:06:34.704Z,13.20
2019-03-06T14:09:05.391Z,13.30
2019-03-06T14:11:35.059Z,13.50
2019-03-06T14:14:05.899Z,13.70
2019-03-06T14:16:35.557Z,13.90
2019-03-06T14:19:04.957Z,14.10
2019-03-06T14:21:34.475Z,14.30
2019-03-06T14:24:04.352Z,14.20
2019-03-06T14:26:33.937Z,14.10
2019-03-06T14:29:03.550Z,14.00
2019-03-06T14:31:32.991Z,14.00
2019-03-06T14:34:02.555Z,14.00
2019-03-06T14:36:32.620Z,14.10
2019-03-06T14:39:02.310Z,14.10
2019-03-06T14:41:31.942Z,14.20
2019-03-06T14:44:01.276Z,14.10
2019-03-06T14:46:30.717Z,14.00
2019-03-06T14:49:00.178Z,13.90
2019-03-06T14:51:29.692Z,14.00
2019-03-06T14:53:59.297Z,14.00
2019-03-06T14:56:28.769Z,13.90
2019-03-06T14:58:58.339Z,13.80
2019-03-06T15:01:27.831Z,13.60
2019-03-06T15:03:57.479Z,13.50
2019-03-06T15:06:27.031Z,13.40
2019-03-06T15:08:56.619Z,13.50
2019-03-06T15:11:32.907Z,13.40
2019-03-06T15:13:57.331Z,13.40
2019-03-06T15:16:26.767Z,13.40
2019-03-06T15:18:56.319Z,13.40
2019-03-06T15:21:25.750Z,13.40
2019-03-06T15:23:55.977Z,13.40
2019-03-06T15:26:25.489Z,13.30
2019-03-06T15:28:54.742Z,13.30
2019-03-06T15:31:24.000Z,13.30
2019-03-06T15:33:53.414Z,13.30
2019-03-06T15:36:23.202Z,13.20
2019-03-06T15:38:52.660Z,13.20
2019-03-06T15:41:21.999Z,13.20
2019-03-06T15:43:51.437Z,13.20
2019-03-06T15:46:20.950Z,13.20
2019-03-06T15:48:50.716Z,13.20
2019-03-06T15:51:20.619Z,13.20
2019-03-06T15:53:50.027Z,13.10
2019-03-06T15:56:19.597Z,13.10
2019-03-06T15:58:49.203Z,13.10
2019-03-06T16:01:19.189Z,13.00
2019-03-06T16:03:48.659Z,13.00
2019-03-06T16:06:20.635Z,13.00
2019-03-06T16:08:49.837Z,13.00
2019-03-06T16:11:19.827Z,13.00
2019-03-06T16:13:49.225Z,12.90
2019-03-06T16:16:18.555Z,12.90
2019-03-06T16:18:47.967Z,12.80
2019-03-06T16:21:17.211Z,12.80
2019-03-06T16:23:46.523Z,12.80
2019-03-06T16:26:15.867Z,12.80
2019-03-06T16:28:45.369Z,12.70
2019-03-06T16:31:15.455Z,12.70
2019-03-06T16:33:44.840Z,12.60
2019-03-06T16:36:14.394Z,12.60
2019-03-06T16:38:43.935Z,12.60
2019-03-06T16:41:13.360Z,12.40
2019-03-06T16:43:42.669Z,12.40
2019-03-06T16:46:12.310Z,12.30
2019-03-06T16:48:41.626Z,12.30
2019-03-06T16:51:11.047Z,12.30
2019-03-06T16:53:40.350Z,12.30
2019-03-06T16:56:09.647Z,12.40
2019-03-06T16:58:38.966Z,12.30
2019-03-06T17:01:08.581Z,12.20
2019-03-06T17:03:37.958Z,12.20
2019-03-06T17:06:07.379Z,12.20
2019-03-06T17:08:36.752Z,12.20
2019-03-06T17:11:06.359Z,12.10
2019-03-06T17:13:35.695Z,12.10
2019-03-06T17:16:05.188Z,12.10
2019-03-06T17:18:34.520Z,12.10
2019-03-06T17:21:03.867Z,12.20
2019-03-06T17:23:33.203Z,12.10
2019-03-06T17:26:02.508Z,12.00
2019-03-06T17:28:32.169Z,12.00
2019-03-06T17:31:01.472Z,12.00
2019-03-06T17:33:30.870Z,11.80
2019-03-06T17:36:00.115Z,11.80
2019-03-06T17:38:29.610Z,11.80
2019-03-06T17:40:59.014Z,11.80
2019-03-06T17:43:28.534Z,11.80
2019-03-06T17:45:57.886Z,11.70
2019-03-06T17:48:27.210Z,11.80
2019-03-06T17:50:56.615Z,11.80
2019-03-06T17:53:27.418Z,11.80
2019-03-06T17:55:56.704Z,11.80
2019-03-06T17:58:26.059Z,11.70
2019-03-06T18:00:59.728Z,11.60
2019-03-06T18:03:42.007Z,11.60
2019-03-06T18:06:11.319Z,11.60
2019-03-06T18:08:40.864Z,11.60
2019-03-06T18:11:10.183Z,11.60
2019-03-06T18:13:39.415Z,11.50
2019-03-06T18:16:08.752Z,11.40
2019-03-06T18:18:38.088Z,11.30
2019-03-06T18:21:07.427Z,11.30
2019-03-06T18:23:36.731Z,11.20
2019-03-06T18:26:06.206Z,11.10
2019-03-06T18:28:35.627Z,11.00
2019-03-06T18:31:04.985Z,10.90
2019-03-06T18:33:34.303Z,10.90
2019-03-06T18:36:03.971Z,10.90
2019-03-06T18:38:33.308Z,10.90
2019-03-06T18:41:02.629Z,10.90
2019-03-06T18:43:31.951Z,10.90
2019-03-06T18:46:01.290Z,10.80
2019-03-06T18:48:30.598Z,10.70
2019-03-06T18:50:59.959Z,10.60
2019-03-06T18:53:29.284Z,10.60
2019-03-06T18:55:58.627Z,10.60
2019-03-06T18:58:27.991Z,10.60
2019-03-06T19:00:57.333Z,10.60
2019-03-06T19:03:26.659Z,10.60
2019-03-06T19:05:56.007Z,10.70
2019-03-06T19:08:31.227Z,10.60
2019-03-06T19:10:56.308Z,10.50
2019-03-06T19:13:25.609Z,10.40
2019-03-06T19:15:54.947Z,10.30
2019-03-06T19:18:24.287Z,10.20
2019-03-06T19:20:53.999Z,10.20
2019-03-06T19:23:23.392Z,10.20
2019-03-06T19:25:52.629Z,10.20
2019-03-06T19:28:21.995Z,10.20
2019-03-06T19:30:51.314Z,10.20
2019-03-06T19:33:20.829Z,10.20
2019-03-06T19:35:50.446Z,10.10
2019-03-06T19:38:19.775Z,10.10
2019-03-06T19:40:49.090Z,10.10
2019-03-06T19:43:18.442Z,10.10
2019-03-06T19:45:47.763Z,10.10
2019-03-06T19:48:17.100Z,10.20
2019-03-06T19:50:46.632Z,10.20
2019-03-06T19:53:16.075Z,10.20
2019-03-06T19:55:45.431Z,10.10
2019-03-06T19:58:14.764Z,10.10
2019-03-06T20:00:44.110Z,10.10
2019-03-06T20:03:13.554Z,10.10
2019-03-06T20:05:43.202Z,10.10
2019-03-06T20:08:13.104Z,10.10
2019-03-06T20:10:42.424Z,10.10
2019-03-06T20:13:11.788Z,10.10
2019-03-06T20:15:41.341Z,10.00
2019-03-06T20:18:10.636Z,9.90
2019-03-06T20:20:41.191Z,10.00
2019-03-06T20:23:10.523Z,10.00
2019-03-06T20:25:39.839Z,10.00
2019-03-06T20:28:09.237Z,10.00
2019-03-06T20:30:38.576Z,10.00
2019-03-06T20:33:08.005Z,10.00
2019-03-06T20:35:37.535Z,9.90
2019-03-06T20:38:06.923Z,9.90
2019-03-06T20:40:36.226Z,9.90
2019-03-06T20:43:05.566Z,9.90
2019-03-06T20:45:34.913Z,9.90
2019-03-06T20:48:04.291Z,9.90
2019-03-06T20:50:34.650Z,9.90
2019-03-06T20:53:04.022Z,9.90
2019-03-06T20:55:33.349Z,9.90
2019-03-06T20:58:02.946Z,9.90
2019-03-06T21:00:32.272Z,9.90
2019-03-06T21:03:01.571Z,9.90
2019-03-06T21:05:30.905Z,9.90
2019-03-06T21:08:00.223Z,10.10
2019-03-06T21:10:29.578Z,10.50
2019-03-06T21:12:58.895Z,10.90
2019-03-06T21:15:28.231Z,11.00
2019-03-06T21:17:57.552Z,11.00
2019-03-06T21:20:26.979Z,10.90
2019-03-06T21:22:56.291Z,10.90
2019-03-06T21:25:25.646Z,10.70
2019-03-06T21:27:55.169Z,10.80
2019-03-06T21:30:29.275Z,10.70
2019-03-06T21:32:58.582Z,10.60
2019-03-06T21:35:27.938Z,10.50
2019-03-06T21:37:57.277Z,10.60
2019-03-06T21:40:26.622Z,10.80
2019-03-06T21:42:55.907Z,10.90
2019-03-06T21:45:25.244Z,10.80
2019-03-06T21:47:54.555Z,10.70
2019-03-06T21:50:23.957Z,10.60
2019-03-06T21:52:53.255Z,10.60
2019-03-06T21:55:22.603Z,10.40
2019-03-06T21:57:51.982Z,10.30
2019-03-06T22:00:21.903Z,10.20
2019-03-06T22:02:51.216Z,10.10
2019-03-06T22:05:20.795Z,10.10
2019-03-06T22:07:50.687Z,10.30
2019-03-06T22:10:20.747Z,10.30
2019-03-06T22:12:50.075Z,10.40
2019-03-06T22:15:19.424Z,10.30
2019-03-06T22:17:48.757Z,10.20
2019-03-06T22:20:18.062Z,10.20
2019-03-06T22:22:47.383Z,10.20
2019-03-06T22:25:16.874Z,10.20
2019-03-06T22:27:46.321Z,10.20
2019-03-06T22:30:17.477Z,10.20
2019-03-06T22:32:48.909Z,10.20
2019-03-06T22:35:18.907Z,10.20
2019-03-06T22:37:48.287Z,10.20
2019-03-06T22:40:18.010Z,10.10
2019-03-06T22:42:47.550Z,10.10
2019-03-06T22:45:17.014Z,10.10
2019-03-06T22:47:46.347Z,10.10
2019-03-06T22:50:15.682Z,10.20
2019-03-06T22:52:45.455Z,10.30
2019-03-06T22:55:15.921Z,10.30
2019-03-06T22:57:45.275Z,10.50
2019-03-06T23:00:45.222Z,10.40
2019-03-06T23:03:15.168Z,10.50
2019-03-06T23:05:44.487Z,10.40
2019-03-06T23:08:13.822Z,10.40
2019-03-06T23:10:43.142Z,10.50
2019-03-06T23:13:12.590Z,10.40
2019-03-06T23:15:42.187Z,10.40
2019-03-06T23:18:11.621Z,10.40
2019-03-06T23:20:40.919Z,10.40
2019-03-06T23:23:10.262Z,10.40
2019-03-06T23:25:39.554Z,10.40
2019-03-06T23:28:08.848Z,10.40
2019-03-06T23:30:38.155Z,10.40
2019-03-06T23:33:07.596Z,10.40
2019-03-06T23:35:36.903Z,10.40
2019-03-06T23:38:06.231Z,10.30
2019-03-06T23:40:35.530Z,10.40
2019-03-06T23:43:05.060Z,10.40
2019-03-06T23:45:34.377Z,10.40
2019-03-06T23:48:03.707Z,10.40
2019-03-06T23:50:32.930Z,10.40
2019-03-06T23:53:09.729Z,10.40
2019-03-06T23:55:39.327Z,10.40
2019-03-06T23:58:08.670Z,10.50
